• Join FlightAware (Why Join?)
  • Login
  • US Flag 
09:49PM EDT


 

Airport Tracker/Info


-or-


 

Live Flight TrackerFlight Track Log ✈ UAL4407 ✈ 18-Apr-2013 ✈ KMHT - KEWR

Flight Track Log - Related Links

Times and Time Zones

All times are in EDT time to prevent confusion due to time zone crossing. See the UAL4407 flight status page for this flight to view local times or setup timezone preferences in your user account.

Time Position Orientation Groundspeed Altitude Reporting Facility
EDT Latitude Longitude Course Direction KTS MPH feet Rate Location/Type
06:24AM 42.9833 -71.4000 276° West 197 227 2,700  Level KA90
06:25AM 43.0333 -71.4333 334° Northwest 225 259 4,900 2,100 Climbing KA90
06:25AM 43.0403 -71.4572 292° West 237 273 5,400 2,160 Climbing Boston Center
06:26AM 42.9584 -71.7168 280° West  Level FlightAware Approximate
06:26AM 43.0783 -71.5219 309° West 258 297 7,900  Level Boston Center
06:27AM 42.9683 -71.8129 280° West  Level FlightAware Approximate
06:27AM 43.0872 -71.6269 277° West 241 277 10,300  Level Boston Center
06:28AM 42.9803 -71.9088 280° West  Level FlightAware Approximate
06:28AM 43.0922 -71.7236 274° West 274 315 10,900  Level Boston Center
06:29AM 43.0014 -72.0007 276° West  Level FlightAware Approximate
06:29AM 43.1014 -71.8600 275° West 317 365 12,700  Level Boston Center
06:30AM 43.1081 -71.9681 275° West 322 371 14,200 1,500 Climbing Boston Center
06:31AM 43.1169 -72.1044 275° West 328 377 15,800 1,380 Climbing Boston Center
06:32AM 43.1233 -72.2153 275° West 328 377 17,100 1,200 Climbing Boston Center
06:33AM 43.1319 -72.3547 275° West 328 377 18,200 780 Climbing Boston Center
06:34AM 43.1403 -72.4828 275° West 333 383 18,700 660 Climbing Boston Center
06:35AM 43.1483 -72.6136 275° West 340 391 19,600 600 Climbing Boston Center
06:36AM 43.1586 -72.7561 276° West 361 415 20,000 180 Climbing Boston Center
06:37AM 43.1706 -72.9014 276° West 376 433 20,000  Level Boston Center
06:38AM 43.1803 -73.0436 275° West 387 445 20,000  Level Boston Center
06:39AM 43.1919 -73.1892 276° West 387 445 20,000 -240 Level Boston Center
06:40AM 43.1722 -73.3283 259° West 376 433 19,600 -720 Descending Boston Center
06:41AM 43.0967 -73.4097 218° Southwest 348 400 18,600 -900 Descending Boston Center
06:42AM 43.0122 -73.5047 219° Southwest 360 414 17,900 -840 Descending Boston Center
06:43AM 42.9406 -73.5858 220° Southwest 366 421 17,000 -900 Descending Boston Center
06:44AM 42.8564 -73.6806 220° Southwest 366 421 16,100 -540 Descending Boston Center
06:45AM 42.7908 -73.7614 222° Southwest 366 421 16,000 -60 Descending Boston Center
06:46AM 42.7003 -73.8272 208° Southwest 361 415 16,000  Level Boston Center
06:47AM 42.5914 -73.8756 198° South 367 422 16,000  Level Boston Center
06:48AM 42.5033 -73.9131 197° South 380 437 16,000  Level Boston Center
06:49AM 42.3922 -73.9608 198° South 380 437 16,000  Level Boston Center
06:50AM 42.2917 -74.0061 198° South 380 437 16,000  Level Boston Center
06:51AM 42.1953 -74.0486 198° South 380 437 16,000 -60 Level Boston Center
06:52AM 42.0986 -74.0936 199° South 380 437 15,900  Descending Boston Center
06:53AM 42.0211 -74.1281 198° South 326 375 16,000 60 Climbing Boston Center
06:54AM 41.9578 -74.1711 207° Southwest 297 342 16,100 -180 Climbing Boston Center
06:55AM 41.9000 -74.2642 230° Southwest 284 327 15,700 -900 Descending Boston Center
06:56AM 41.8531 -74.3353 228° Southwest 296 341 14,400 -1,500 Descending Boston Center
06:57AM 41.7814 -74.3889 209° Southwest 274 315 12,800 -1,740 Descending Boston Center
06:58AM 41.7042 -74.3894 180° South 279 321 11,000 -1,920 Descending Boston Center
06:59AM 41.6125 -74.3892 180° South 299 344 9,000 -1,500 Descending Boston Center
07:00AM 41.5458 -74.3900 181° South 293 337 8,000 -960 Descending Boston Center
07:01AM 41.4644 -74.3903 180° South 271 312 7,100 -360 Descending Boston Center
07:03AM 41.3167 -74.4333 192° South 259 298 7,000 -60 Descending New York TRACON
07:04AM 41.2500 -74.4667 201° Southwest 254 292 7,000  Level New York TRACON
07:05AM 41.1667 -74.5000 197° South 255 293 7,000  Level New York TRACON
07:06AM 41.1000 -74.5167 191° South 257 296 7,000 -420 Level New York TRACON
07:07AM 41.0333 -74.5333 191° South 261 300 6,200 -900 Descending New York TRACON
07:08AM 40.9667 -74.5333 180° South 252 290 5,400 -660 Descending New York TRACON
07:09AM 40.9000 -74.5333 180° South 240 276 5,000 -240 Descending New York TRACON
07:10AM 40.8500 -74.5500 194° South 241 277 5,000  Level New York TRACON
07:11AM 40.7833 -74.5500 180° South 242 278 5,000  Level New York TRACON
07:12AM 40.7167 -74.5167 159° South 241 277 5,000  Level New York TRACON
07:13AM 40.6667 -74.4833 153° Southeast 246 283 5,000  Level New York TRACON
07:14AM 40.6000 -74.4333 150° Southeast 252 290 5,000 -480 Level New York TRACON
07:15AM 40.5500 -74.4000 153° Southeast 248 285 4,200 -1,020 Descending New York TRACON
07:16AM 40.5333 -74.3167 105° East 231 266 3,100 -720 Descending New York TRACON
07:17AM 40.5500 -74.2500 72° East 234 269 2,900 -840 Descending New York TRACON
07:18AM 40.6167 -74.2167 21° North 223 257 1,600 -1,140 Descending New York TRACON
07:19AM 40.6500 -74.1833 37° Northeast 144 166 700 -900 Descending New York TRACON